Terminal Aerodrome Forecast
Issued by NWS

Home | Current Version | Previous Version | Text Only | Print | Product List | Glossary On
Versions: 1 2 3 4 5 6 7 8 9 10 11 12 13 14 15 16 17 18
000
FTUS42 KTBW 180500
TAFLAL
TAF
KLAL 180537Z 1806/1906 VRB03KT P6SM BKN250
     FM181000 00000KT 6SM BR BKN250
     FM181400 32005KT P6SM FEW035 BKN250
     FM190000 VRB02KT P6SM BKN250
      AMD NOT SKED TIL 181200=

USA.gov is the U.S. government's official web portal to all federal, state and local government web resources and services.